Time;durP1;ratioP1;P1;durP2;ratioP2;P2;SDS_P1;SDS_P2;PMS_P1;PMS_P2;Temp;Humidity;BMP_temperature;BMP_pressure;BME280_temperature;BME280_humidity;BME280_pressure;Samples;Min_cycle;Max_cycle;Signal;HPM_P1;HPM_P2
2022/09/15 00:01:25;;;;;;;3.03;1.38;;;14.80;99.90;;;;;;4961379;28;20566;-66
2022/09/15 00:03:50;;;;;;;3.88;2.00;;;14.80;99.90;;;;;;4977478;28;20042;-66
2022/09/15 00:06:16;;;;;;;4.35;1.80;;;14.80;99.90;;;;;;4977598;28;20078;-66
2022/09/15 00:08:42;;;;;;;7.60;1.98;;;14.90;99.90;;;;;;4961526;28;20454;-66
2022/09/15 00:11:26;;;;;;;5.75;1.90;;;14.80;99.90;;;;;;4977407;28;20100;-66
2022/09/15 00:13:53;;;;;;;7.40;2.65;;;14.90;99.90;;;;;;4977274;28;20041;-66
2022/09/15 00:16:20;;;;;;;6.75;2.15;;;14.80;99.90;;;;;;4977134;28;20170;-66
2022/09/15 00:18:46;;;;;;;4.82;2.15;;;14.90;99.90;;;;;;4977224;28;20038;-66
2022/09/15 00:21:18;;;;;;;4.85;2.03;;;14.90;99.90;;;;;;4977414;28;20034;-66
2022/09/15 00:23:44;;;;;;;6.03;2.20;;;14.90;99.90;;;;;;4977106;28;20125;-66
2022/09/15 00:26:12;;;;;;;5.93;2.50;;;14.90;99.90;;;;;;4977049;28;20125;-66
2022/09/15 00:28:38;;;;;;;6.63;2.95;;;14.90;99.90;;;;;;4977057;28;20414;-66
2022/09/15 00:31:06;;;;;;;4.63;3.25;;;14.90;99.90;;;;;;4994682;28;20064;-66
2022/09/15 00:33:32;;;;;;;6.78;3.40;;;15.00;99.90;;;;;;4976894;28;20047;-66
2022/09/15 00:36:02;;;;;;;6.47;3.50;;;15.00;99.90;;;;;;4976732;28;20042;-66
2022/09/15 00:38:28;;;;;;;7.20;3.58;;;15.00;99.90;;;;;;4977230;28;20132;-66
2022/09/15 00:40:56;;;;;;;7.05;3.53;;;15.00;99.90;;;;;;4976794;28;20431;-66
2022/09/15 00:43:44;;;;;;;6.68;3.38;;;15.10;99.90;;;;;;4976818;28;20038;-66
2022/09/15 00:46:10;;;;;;;8.85;3.00;;;15.10;99.90;;;;;;4976930;28;20077;-66
2022/09/15 00:48:39;;;;;;;6.60;2.33;;;15.10;99.90;;;;;;4976939;28;20073;-66
2022/09/15 00:51:07;;;;;;;6.80;2.28;;;15.10;99.90;;;;;;4976657;28;20046;-66
2022/09/15 00:53:34;;;;;;;9.60;2.25;;;15.20;99.90;;;;;;4976628;28;20057;-66
2022/09/15 00:56:01;;;;;;;7.38;2.13;;;15.20;99.90;;;;;;4976669;28;20181;-66
2022/09/15 00:58:32;;;;;;;9.70;2.45;;;15.20;99.90;;;;;;4976868;28;20035;-66
2022/09/15 01:01:01;;;;;;;9.98;2.58;;;15.20;99.90;;;;;;4976595;28;20038;-66
2022/09/15 01:03:31;;;;;;;8.40;2.45;;;15.20;99.90;;;;;;4976830;28;20039;-66
2022/09/15 01:06:02;;;;;;;7.30;2.55;;;15.20;99.90;;;;;;4960404;28;20085;-66
2022/09/15 01:08:51;;;;;;;8.07;2.90;;;15.10;99.90;;;;;;4976435;28;20056;-66
2022/09/15 01:11:17;;;;;;;6.25;2.80;;;15.20;99.90;;;;;;4960350;28;20042;-66
2022/09/15 01:13:43;;;;;;;7.40;3.00;;;15.10;99.90;;;;;;4976740;28;20045;-66
2022/09/15 01:16:27;;;;;;;5.57;2.28;;;15.20;99.90;;;;;;4976272;28;20502;-66
2022/09/15 01:19:15;;;;;;;7.45;2.35;;;15.20;99.90;;;;;;4976390;28;20546;-66
2022/09/15 01:22:00;;;;;;;3.92;1.88;;;15.20;99.90;;;;;;4976319;28;20041;-66
2022/09/15 01:24:34;;;;;;;6.80;2.28;;;15.10;99.90;;;;;;4976332;28;20110;-66
2022/09/15 01:27:27;;;;;;;6.32;2.17;;;15.20;99.90;;;;;;4976182;28;20495;-66
2022/09/15 01:30:16;;;;;;;5.07;1.77;;;15.20;99.90;;;;;;4976317;28;20508;-66
2022/09/15 01:33:05;;;;;;;5.32;1.70;;;15.20;99.90;;;;;;4963714;28;20426;-66
2022/09/15 01:35:55;;;;;;;8.50;2.08;;;15.20;99.90;;;;;;4976099;28;20042;-67
2022/09/15 01:38:46;;;;;;;6.63;2.13;;;15.20;99.90;;;;;;4976210;28;20045;-66
2022/09/15 01:41:44;;;;;;;10.13;2.30;;;15.20;99.90;;;;;;4976179;28;20403;-66
2022/09/15 01:44:22;;;;;;;6.88;2.30;;;15.20;99.90;;;;;;4976405;28;20030;-66
2022/09/15 01:46:54;;;;;;;7.82;2.55;;;15.20;99.90;;;;;;4976332;28;20124;-66
2022/09/15 01:49:24;;;;;;;9.18;2.10;;;15.20;99.90;;;;;;4976053;28;20541;-66
2022/09/15 01:51:51;;;;;;;7.65;1.83;;;15.20;99.90;;;;;;4993489;28;20051;-66
2022/09/15 01:54:23;;;;;;;6.05;1.88;;;15.20;99.90;;;;;;4976013;28;20052;-66
2022/09/15 01:56:49;;;;;;;6.73;1.90;;;15.20;99.90;;;;;;4976018;28;20491;-66
2022/09/15 01:59:15;;;;;;;4.53;1.73;;;15.10;99.90;;;;;;4976794;28;20048;-66
2022/09/15 02:01:50;;;;;;;6.03;1.73;;;15.10;99.90;;;;;;4976011;28;20038;-66
2022/09/15 02:04:45;;;;;;;9.02;1.65;;;15.10;99.90;;;;;;4976010;28;20046;-66
2022/09/15 02:07:47;;;;;;;7.57;1.83;;;15.10;99.90;;;;;;4975946;28;20077;-66
2022/09/15 02:10:28;;;;;;;6.93;1.63;;;15.10;99.90;;;;;;4976209;28;20046;-66
2022/09/15 02:13:00;;;;;;;7.65;1.55;;;15.00;99.90;;;;;;4975898;28;20117;-66
2022/09/15 02:15:32;;;;;;;7.97;1.73;;;15.00;99.90;;;;;;4976064;28;20042;-66
2022/09/15 02:18:01;;;;;;;6.77;1.73;;;15.00;99.90;;;;;;4975776;28;20161;-66
2022/09/15 02:20:42;;;;;;;8.95;2.00;;;14.90;99.90;;;;;;4978264;28;20274;-66
2022/09/15 02:23:31;;;;;;;8.88;1.38;;;15.00;99.90;;;;;;4979632;28;20046;-66
2022/09/15 02:26:03;;;;;;;5.32;1.20;;;14.90;99.90;;;;;;4979237;28;20049;-66
2022/09/15 02:28:32;;;;;;;8.38;1.17;;;14.90;99.90;;;;;;4979259;28;20053;-66
2022/09/15 02:30:59;;;;;;;5.93;1.10;;;14.90;99.90;;;;;;4996647;28;20491;-66
2022/09/15 02:33:31;;;;;;;7.20;1.33;;;14.90;99.90;;;;;;4979438;28;20113;-66
2022/09/15 02:35:58;;;;;;;6.53;1.43;;;14.90;99.90;;;;;;4979205;28;20077;-66
2022/09/15 02:38:28;;;;;;;9.45;1.52;;;14.90;99.90;;;;;;4962868;28;20042;-66
2022/09/15 02:40:55;;;;;;;9.73;1.60;;;14.90;99.90;;;;;;4979056;28;20049;-66
2022/09/15 02:43:22;;;;;;;7.32;1.23;;;14.90;99.90;;;;;;4979006;28;20042;-66
2022/09/15 02:45:48;;;;;;;8.50;1.23;;;14.90;99.90;;;;;;4978851;28;20414;-66
2022/09/15 02:48:14;;;;;;;7.57;1.13;;;14.90;99.90;;;;;;4996365;28;20096;-66
2022/09/15 02:50:40;;;;;;;7.43;1.33;;;14.90;99.90;;;;;;4979127;28;20038;-66
2022/09/15 02:53:06;;;;;;;11.05;1.50;;;14.90;99.90;;;;;;4978858;28;20560;-66
2022/09/15 02:55:32;;;;;;;8.48;1.40;;;14.90;99.90;;;;;;4962747;28;20146;-67
2022/09/15 02:57:58;;;;;;;7.38;1.35;;;14.90;99.90;;;;;;4979051;28;20137;-66
2022/09/15 03:00:27;;;;;;;6.60;1.30;;;14.90;99.90;;;;;;4962668;28;20510;-66
2022/09/15 03:02:54;;;;;;;6.05;1.05;;;14.90;99.90;;;;;;4978596;28;20038;-66
2022/09/15 03:05:22;;;;;;;5.93;1.40;;;14.80;99.90;;;;;;4978881;28;20042;-66
2022/09/15 03:07:48;;;;;;;9.93;1.38;;;14.80;99.90;;;;;;4978498;28;20030;-66
2022/09/15 03:10:14;;;;;;;9.38;1.35;;;14.80;99.90;;;;;;4978473;28;20057;-66
2022/09/15 03:12:41;;;;;;;8.70;1.23;;;14.80;99.90;;;;;;4978783;28;20081;-66
2022/09/15 03:15:09;;;;;;;6.90;1.65;;;14.80;99.90;;;;;;4978377;28;20486;-66
2022/09/15 03:17:36;;;;;;;11.45;1.50;;;14.80;99.90;;;;;;4962249;28;20121;-66
2022/09/15 03:20:04;;;;;;;6.18;1.33;;;14.80;99.90;;;;;;4978362;28;20046;-66
2022/09/15 03:22:30;;;;;;;5.75;1.20;;;14.80;99.90;;;;;;4962180;28;20043;-66
2022/09/15 03:24:55;;;;;;;7.60;1.10;;;14.80;99.90;;;;;;4978232;28;20041;-67
2022/09/15 03:27:21;;;;;;;6.38;0.98;;;14.80;99.90;;;;;;4978416;28;20038;-66
2022/09/15 03:29:47;;;;;;;4.45;1.13;;;14.80;99.90;;;;;;4995620;28;20402;-66
2022/09/15 03:32:12;;;;;;;9.52;1.50;;;14.70;99.90;;;;;;4977002;28;20042;-66
2022/09/15 03:34:38;;;;;;;6.95;1.27;;;14.70;99.90;;;;;;4978077;28;20042;-66
2022/09/15 03:37:04;;;;;;;9.55;1.10;;;14.70;99.90;;;;;;4977970;28;20046;-68
2022/09/15 03:39:29;;;;;;;6.65;1.15;;;14.70;99.90;;;;;;4978252;28;20121;-68
2022/09/15 03:41:55;;;;;;;7.28;1.20;;;14.70;99.90;;;;;;4977951;28;20514;-69
2022/09/15 03:44:21;;;;;;;4.40;0.93;;;14.60;99.90;;;;;;4977888;28;20042;-69
2022/09/15 03:46:46;;;;;;;6.78;1.50;;;14.60;99.90;;;;;;4977782;28;20046;-69
2022/09/15 03:49:12;;;;;;;6.63;1.38;;;14.60;99.90;;;;;;4978043;28;20046;-69
2022/09/15 03:51:37;;;;;;;5.50;0.98;;;14.60;99.90;;;;;;4977776;28;20426;-69
2022/09/15 03:54:03;;;;;;;7.00;1.23;;;14.60;99.90;;;;;;4977707;28;20100;-69
2022/09/15 03:56:31;;;;;;;8.05;1.30;;;14.60;99.90;;;;;;4977537;28;20069;-69
2022/09/15 03:58:58;;;;;;;7.43;1.30;;;14.60;99.90;;;;;;4977611;28;20042;-69
2022/09/15 04:01:24;;;;;;;5.97;1.02;;;14.60;99.90;;;;;;4977549;28;20126;-68
2022/09/15 04:03:50;;;;;;;6.18;1.42;;;14.60;99.90;;;;;;4961389;28;20034;-69
2022/09/15 04:06:17;;;;;;;6.32;1.30;;;14.60;99.90;;;;;;4994854;28;20046;-69
2022/09/15 04:08:43;;;;;;;7.68;1.20;;;14.70;99.90;;;;;;4977430;28;20450;-69
2022/09/15 04:11:10;;;;;;;5.47;1.20;;;14.60;99.90;;;;;;4977577;28;20046;-69
2022/09/15 04:13:37;;;;;;;5.53;1.05;;;14.60;99.90;;;;;;4977302;28;20046;-69
2022/09/15 04:16:07;;;;;;;5.65;1.15;;;14.60;99.90;;;;;;4976983;28;20076;-69
2022/09/15 04:18:33;;;;;;;5.78;1.20;;;14.60;99.90;;;;;;4977534;28;20046;-69
2022/09/15 04:21:00;;;;;;;8.40;1.25;;;14.60;99.90;;;;;;4977436;28;20517;-69
2022/09/15 04:23:26;;;;;;;7.32;1.25;;;14.60;99.90;;;;;;4961142;28;20053;-69
2022/09/15 04:26:16;;;;;;;5.07;0.95;;;14.60;99.90;;;;;;4977329;28;20038;-69
2022/09/15 04:28:41;;;;;;;5.65;1.00;;;14.60;99.90;;;;;;4961007;28;20045;-69
2022/09/15 04:31:09;;;;;;;3.55;0.82;;;14.60;99.90;;;;;;4977026;28;20046;-69
2022/09/15 04:33:36;;;;;;;5.03;0.93;;;14.60;99.90;;;;;;4977158;28;20059;-69
2022/09/15 04:36:06;;;;;;;5.28;1.05;;;14.60;99.90;;;;;;4976922;28;20050;-69
2022/09/15 04:38:31;;;;;;;7.90;1.30;;;14.50;99.90;;;;;;4976799;28;20038;-69
2022/09/15 04:40:58;;;;;;;4.18;0.88;;;14.50;99.90;;;;;;4976875;28;20042;-70
2022/09/15 04:43:24;;;;;;;8.15;1.42;;;14.50;99.90;;;;;;4976705;28;20050;-69
2022/09/15 04:45:50;;;;;;;5.53;1.15;;;14.50;99.90;;;;;;4976978;28;20573;-69
2022/09/15 04:48:16;;;;;;;6.13;1.00;;;14.40;99.90;;;;;;4976772;28;20121;-69
2022/09/15 04:50:41;;;;;;;6.18;1.10;;;14.40;99.90;;;;;;4976732;28;20048;-69
2022/09/15 04:53:07;;;;;;;8.80;1.08;;;14.40;99.90;;;;;;4960658;28;20038;-69
2022/09/15 04:55:33;;;;;;;7.88;1.80;;;14.40;99.90;;;;;;4976764;28;20462;-70
2022/09/15 04:58:01;;;;;;;8.07;1.13;;;14.40;99.90;;;;;;4976878;28;20088;-69
2022/09/15 05:00:27;;;;;;;7.55;1.60;;;14.30;99.90;;;;;;4976873;28;20034;-69
2022/09/15 05:02:53;;;;;;;6.22;1.38;;;14.30;99.90;;;;;;4976514;28;20057;-69
2022/09/15 05:05:19;;;;;;;6.10;1.30;;;14.30;99.90;;;;;;4976553;28;20043;-69
2022/09/15 05:07:46;;;;;;;9.98;1.52;;;14.30;99.90;;;;;;4976420;28;20038;-69
2022/09/15 05:10:13;;;;;;;4.80;1.13;;;14.30;99.90;;;;;;4976715;28;20046;-69
2022/09/15 05:12:39;;;;;;;10.60;1.42;;;14.30;99.90;;;;;;4976440;28;20080;-69
2022/09/15 05:15:05;;;;;;;8.25;1.30;;;14.30;99.90;;;;;;4976673;28;20046;-69
2022/09/15 05:17:31;;;;;;;8.45;1.25;;;14.30;99.90;;;;;;4960021;28;20035;-69
2022/09/15 05:19:57;;;;;;;7.18;1.00;;;14.30;99.90;;;;;;4994014;28;20038;-69
2022/09/15 05:22:23;;;;;;;6.88;1.05;;;14.30;99.90;;;;;;4976360;28;20117;-69
2022/09/15 05:24:49;;;;;;;8.93;1.10;;;14.30;99.90;;;;;;4976238;28;20122;-69
2022/09/15 05:27:14;;;;;;;5.55;1.40;;;14.30;99.90;;;;;;4976257;28;20137;-69
2022/09/15 05:29:40;;;;;;;10.07;1.48;;;14.30;99.90;;;;;;4976310;28;20074;-69
2022/09/15 05:32:05;;;;;;;9.75;1.33;;;14.30;99.90;;;;;;4976266;28;20085;-70
2022/09/15 05:34:31;;;;;;;9.07;1.30;;;14.30;99.90;;;;;;4976284;28;20042;-69
2022/09/15 05:36:56;;;;;;;6.75;1.58;;;14.30;99.90;;;;;;4976113;28;20049;-69
2022/09/15 05:39:22;;;;;;;4.93;0.98;;;14.30;99.90;;;;;;4976233;28;20035;-69
2022/09/15 05:41:48;;;;;;;10.70;1.67;;;14.30;99.90;;;;;;4960254;28;20042;-69
2022/09/15 05:44:13;;;;;;;7.75;1.15;;;14.30;99.90;;;;;;4976073;28;20411;-69
2022/09/15 05:46:39;;;;;;;7.32;1.10;;;14.40;99.90;;;;;;4975979;28;20049;-69
2022/09/15 05:49:05;;;;;;;6.72;1.30;;;14.40;99.90;;;;;;4976144;28;20042;-69
2022/09/15 05:51:31;;;;;;;9.35;1.70;;;14.40;99.90;;;;;;4976274;28;20051;-69
2022/09/15 05:53:57;;;;;;;9.98;1.67;;;14.40;99.90;;;;;;4976447;28;20055;-69
2022/09/15 05:56:23;;;;;;;9.90;1.63;;;14.40;99.90;;;;;;4979758;28;20046;-69
2022/09/15 05:58:48;;;;;;;5.90;1.20;;;14.50;99.90;;;;;;4980145;28;20053;-69
2022/09/15 06:01:23;;;;;;;5.28;1.13;;;14.50;99.90;;;;;;4979692;28;20042;-69
2022/09/15 06:03:49;;;;;;;7.95;1.52;;;14.50;99.90;;;;;;4979791;28;20081;-69
2022/09/15 06:06:14;;;;;;;7.47;1.45;;;14.50;99.90;;;;;;4979582;28;20094;-69
2022/09/15 06:08:45;;;;;;;8.98;1.33;;;14.50;99.90;;;;;;4997123;28;20034;-69
2022/09/15 06:11:17;;;;;;;6.53;1.30;;;14.60;99.90;;;;;;4979638;28;20045;-69
2022/09/15 06:13:43;;;;;;;7.93;1.25;;;14.60;99.90;;;;;;4979536;28;20120;-69
2022/09/15 06:16:11;;;;;;;6.90;1.75;;;14.60;99.90;;;;;;4963258;28;20503;-69
2022/09/15 06:18:38;;;;;;;10.10;1.30;;;14.70;99.90;;;;;;4979469;28;20046;-69
2022/09/15 06:21:16;;;;;;;8.43;1.25;;;14.80;99.90;;;;;;4979383;28;20046;-69
2022/09/15 06:23:42;;;;;;;7.32;1.30;;;14.90;99.90;;;;;;4980567;28;20109;-68
2022/09/15 06:26:17;;;;;;;10.77;1.73;;;14.90;99.90;;;;;;4979174;28;20123;-69
2022/09/15 06:28:51;;;;;;;8.70;1.40;;;15.00;99.90;;;;;;4979245;28;20526;-69
2022/09/15 06:31:17;;;;;;;10.15;1.33;;;15.10;99.90;;;;;;4979299;28;20046;-69
2022/09/15 06:33:45;;;;;;;7.85;1.52;;;15.10;99.90;;;;;;4979441;28;20081;-69
2022/09/15 06:36:15;;;;;;;9.98;1.55;;;15.10;99.90;;;;;;4979212;28;20101;-69
2022/09/15 06:38:42;;;;;;;13.23;1.73;;;15.10;99.90;;;;;;4979267;28;20117;-69
2022/09/15 06:41:09;;;;;;;8.75;1.40;;;15.20;99.90;;;;;;4979380;28;20085;-69
2022/09/15 06:43:35;;;;;;;6.82;1.65;;;15.20;99.90;;;;;;4979313;28;20100;-69
2022/09/15 06:46:11;;;;;;;9.95;1.50;;;15.30;99.90;;;;;;4978991;28;20042;-69
2022/09/15 06:48:38;;;;;;;5.75;1.10;;;15.40;99.90;;;;;;4978896;28;20077;-69
2022/09/15 06:51:05;;;;;;;10.02;1.52;;;15.40;99.90;;;;;;4979128;28;20046;-69
2022/09/15 06:53:32;;;;;;;4.60;1.02;;;15.40;99.90;;;;;;4979061;28;20089;-69
2022/09/15 06:56:06;;;;;;;7.68;1.05;;;15.50;99.90;;;;;;4978525;28;20050;-69
2022/09/15 06:58:37;;;;;;;7.03;1.02;;;15.60;99.90;;;;;;4978684;28;20046;-69
2022/09/15 07:01:08;;;;;;;9.35;1.58;;;15.60;99.90;;;;;;4978931;28;20065;-69
2022/09/15 07:03:34;;;;;;;6.63;1.55;;;15.60;99.90;;;;;;4978745;28;20046;-69
2022/09/15 07:06:00;;;;;;;10.00;1.52;;;15.60;99.90;;;;;;4978503;28;20046;-69
2022/09/15 07:08:25;;;;;;;10.75;1.83;;;15.60;99.90;;;;;;4978583;28;20077;-69
2022/09/15 07:10:51;;;;;;;8.73;1.60;;;15.50;99.90;;;;;;4978552;28;20073;-69
2022/09/15 07:13:17;;;;;;;8.07;1.50;;;15.60;99.90;;;;;;4978395;28;20047;-68
2022/09/15 07:15:56;;;;;;;8.07;1.70;;;15.50;99.90;;;;;;4978613;28;20038;-69
2022/09/15 07:18:22;;;;;;;6.57;1.17;;;15.50;99.90;;;;;;4979333;28;20070;-68
2022/09/15 07:20:49;;;;;;;8.98;1.75;;;15.50;99.90;;;;;;4978375;28;20046;-68
2022/09/15 07:23:15;;;;;;;6.72;1.20;;;15.50;99.90;;;;;;4978556;28;20053;-68
2022/09/15 07:25:43;;;;;;;7.95;1.42;;;15.50;99.90;;;;;;4978379;28;20058;-68
2022/09/15 07:28:10;;;;;;;6.68;1.30;;;15.50;99.90;;;;;;4978373;28;20169;-68
2022/09/15 07:30:37;;;;;;;8.65;1.45;;;15.50;99.90;;;;;;4978329;28;20050;-68
2022/09/15 07:33:04;;;;;;;7.28;1.10;;;15.50;99.90;;;;;;4978264;28;20100;-68
2022/09/15 07:35:29;;;;;;;8.80;1.10;;;15.60;99.90;;;;;;4978403;28;20116;-68
2022/09/15 07:37:55;;;;;;;7.57;1.08;;;15.60;99.90;;;;;;4977955;28;20456;-68
2022/09/15 07:40:21;;;;;;;5.45;0.80;;;15.70;99.90;;;;;;4961939;28;20042;-68
2022/09/15 07:42:46;;;;;;;9.15;1.40;;;15.70;99.90;;;;;;4977956;28;20035;-68
2022/09/15 07:45:12;;;;;;;4.40;1.15;;;15.70;99.90;;;;;;4977894;28;20069;-68
2022/09/15 07:47:37;;;;;;;5.18;0.75;;;15.80;99.90;;;;;;4977836;28;20050;-68
2022/09/15 07:50:05;;;;;;;5.90;0.90;;;15.80;99.90;;;;;;4977998;28;20048;-69
2022/09/15 07:52:31;;;;;;;7.35;1.23;;;15.80;99.90;;;;;;4962636;28;20061;-68
2022/09/15 07:54:57;;;;;;;7.35;1.13;;;15.90;99.90;;;;;;4977937;28;20414;-69
2022/09/15 07:57:22;;;;;;;6.40;1.05;;;15.90;99.90;;;;;;4977539;28;20042;-69
2022/09/15 07:59:48;;;;;;;5.90;1.00;;;15.90;99.90;;;;;;4977843;28;20034;-69
2022/09/15 08:02:19;;;;;;;6.18;0.95;;;15.90;99.90;;;;;;4977591;28;20495;-69
2022/09/15 08:04:45;;;;;;;7.00;0.95;;;16.10;99.90;;;;;;4977514;28;20081;-68
2022/09/15 08:07:11;;;;;;;7.65;1.17;;;16.10;99.90;;;;;;4977406;28;20081;-68
2022/09/15 08:09:38;;;;;;;5.35;1.00;;;16.30;99.90;;;;;;4977332;28;20406;-69
2022/09/15 08:12:04;;;;;;;5.03;1.20;;;16.40;99.90;;;;;;4977329;28;20503;-68
2022/09/15 08:14:32;;;;;;;8.80;1.05;;;16.50;99.90;;;;;;4977360;28;20050;-68
2022/09/15 08:17:00;;;;;;;6.60;1.00;;;16.50;99.90;;;;;;4976376;28;20046;-69
2022/09/15 08:19:30;;;;;;;5.93;1.05;;;16.60;99.90;;;;;;4994695;28;20522;-68
2022/09/15 08:21:56;;;;;;;7.65;1.08;;;16.70;99.90;;;;;;4977149;28;20495;-68
2022/09/15 08:24:22;;;;;;;4.53;0.95;;;16.80;99.90;;;;;;4961087;28;20038;-68
2022/09/15 08:26:49;;;;;;;6.18;1.00;;;16.90;99.90;;;;;;4961309;28;20049;-69
2022/09/15 08:29:14;;;;;;;5.93;1.33;;;17.00;99.90;;;;;;4977035;28;20513;-68
2022/09/15 08:31:40;;;;;;;8.70;1.05;;;16.90;99.90;;;;;;4977618;28;20042;-68
2022/09/15 08:34:06;;;;;;;7.40;0.90;;;16.90;99.90;;;;;;4977024;28;20498;-68
2022/09/15 08:36:32;;;;;;;3.88;0.80;;;16.80;99.90;;;;;;4960827;28;20045;-71
2022/09/15 08:38:58;;;;;;;5.63;0.88;;;16.90;99.90;;;;;;4976912;28;20076;-71
2022/09/15 08:41:35;;;;;;;7.35;1.02;;;17.00;99.90;;;;;;4976903;28;20073;-71
2022/09/15 08:44:15;;;;;;;8.63;1.13;;;17.40;99.90;;;;;;4976920;28;20046;-68
2022/09/15 08:46:52;;;;;;;6.72;1.15;;;17.80;99.90;;;;;;4977241;28;20045;-69
2022/09/15 08:49:38;;;;;;;7.03;1.33;;;18.00;99.90;;;;;;4977101;28;20045;-69
2022/09/15 08:52:09;;;;;;;8.05;1.27;;;18.40;99.90;;;;;;4976928;28;20050;-69
2022/09/15 08:54:36;;;;;;;6.57;1.00;;;18.70;99.90;;;;;;4994136;28;20085;-69
2022/09/15 08:57:04;;;;;;;7.13;1.30;;;19.10;99.90;;;;;;4976572;28;20046;-69
2022/09/15 08:59:34;;;;;;;6.53;1.17;;;19.40;99.90;;;;;;4976872;28;20056;-69
2022/09/15 09:02:12;;;;;;;6.20;1.00;;;19.80;99.90;;;;;;4960762;28;20041;-69
2022/09/15 09:04:54;;;;;;;4.53;0.80;;;20.10;99.90;;;;;;4976564;28;20479;-69
2022/09/15 09:07:47;;;;;;;8.23;1.23;;;20.00;99.80;;;;;;4976414;28;20046;-69
2022/09/15 09:10:38;;;;;;;4.05;0.85;;;19.80;99.40;;;;;;4976479;28;20042;-69
2022/09/15 09:13:49;;;;;;;5.32;1.02;;;19.80;98.80;;;;;;4976489;28;20454;-69
2022/09/15 09:16:40;;;;;;;5.32;0.73;;;19.60;99.90;;;;;;4932088;28;20054;-69
2022/09/15 09:19:32;;;;;;;5.38;0.75;;;19.40;99.90;;;;;;4976440;28;20039;-69
2022/09/15 09:22:22;;;;;;;7.88;1.35;;;19.50;99.90;;;;;;4976336;28;20046;-69
2022/09/15 09:24:52;;;;;;;5.50;1.40;;;19.30;99.90;;;;;;4976574;28;20077;-69
2022/09/15 09:27:25;;;;;;;6.70;1.00;;;19.10;99.90;;;;;;4976172;28;20050;-69
2022/09/15 09:30:14;;;;;;;5.47;1.00;;;18.90;99.90;;;;;;4980068;28;20039;-69
2022/09/15 09:32:44;;;;;;;6.95;0.98;;;18.80;99.90;;;;;;4980305;28;20049;-69
2022/09/15 09:35:30;;;;;;;8.60;1.08;;;18.70;99.90;;;;;;4980254;28;20043;-69
2022/09/15 09:37:58;;;;;;;8.27;1.60;;;18.60;99.90;;;;;;4980170;28;20513;-69
2022/09/15 09:40:24;;;;;;;7.70;1.40;;;18.60;99.90;;;;;;4980398;28;20053;-69
2022/09/15 09:42:50;;;;;;;4.75;1.05;;;19.00;99.90;;;;;;4980404;28;20061;-69
2022/09/15 09:45:18;;;;;;;5.72;0.85;;;19.60;99.90;;;;;;4980086;28;20410;-67
2022/09/15 09:47:45;;;;;;;7.45;1.30;;;20.10;99.90;;;;;;4979983;28;20503;-67
2022/09/15 09:50:43;;;;;;;4.78;1.20;;;20.40;99.90;;;;;;4980000;28;20050;-67
2022/09/15 09:53:29;;;;;;;5.05;0.75;;;20.70;96.20;;;;;;4980198;28;20039;-67
2022/09/15 09:56:25;;;;;;;5.43;1.00;;;20.60;91.00;;;;;;4979809;28;20049;-67
2022/09/15 09:58:53;;;;;;;4.82;0.65;;;20.40;82.90;;;;;;4978463;28;20077;-67
2022/09/15 10:01:20;;;;;;;4.20;0.60;;;20.30;85.40;;;;;;4979767;28;20049;-67
2022/09/15 10:03:46;;;;;;;3.72;0.60;;;20.10;85.50;;;;;;4979978;28;20042;-67
2022/09/15 10:06:15;;;;;;;7.22;0.75;;;20.00;84.80;;;;;;4979555;28;20125;-67
2022/09/15 10:09:04;;;;;;;4.03;0.80;;;20.10;86.90;;;;;;4979688;28;20046;-67
2022/09/15 10:11:48;;;;;;;5.07;0.82;;;20.20;83.20;;;;;;4963763;28;20081;-67
2022/09/15 10:14:21;;;;;;;3.90;0.70;;;20.40;84.40;;;;;;4979557;28;20503;-67
2022/09/15 10:16:59;;;;;;;4.35;0.60;;;20.30;86.70;;;;;;4963126;28;20046;-67
2022/09/15 10:19:26;;;;;;;3.20;0.60;;;20.20;85.90;;;;;;4979513;28;20413;-67
2022/09/15 10:21:52;;;;;;;2.92;0.60;;;20.40;85.80;;;;;;4979739;28;20046;-67
2022/09/15 10:24:32;;;;;;;2.95;0.50;;;20.90;86.70;;;;;;4979404;28;20434;-66
2022/09/15 10:27:25;;;;;;;3.63;1.10;;;21.40;82.10;;;;;;4979366;28;20046;-66
2022/09/15 10:29:52;;;;;;;4.85;0.60;;;22.10;80.80;;;;;;4979360;28;20055;-66
2022/09/15 10:32:22;;;;;;;4.25;0.55;;;22.70;77.50;;;;;;4979319;28;20073;-66
2022/09/15 10:34:48;;;;;;;5.90;0.70;;;22.70;73.10;;;;;;4979070;28;20414;-68
2022/09/15 10:37:52;;;;;;;10.18;0.70;;;22.30;74.30;;;;;;4978985;28;20042;-66
2022/09/15 10:40:36;;;;;;;5.00;1.25;;;21.90;79.20;;;;;;4948243;28;20054;-66
2022/09/15 10:43:10;;;;;;;5.28;0.90;;;21.50;81.80;;;;;;4979085;28;20097;-66
2022/09/15 10:45:46;;;;;;;4.75;0.98;;;21.00;89.60;;;;;;4979176;28;20062;-66
2022/09/15 10:48:30;;;;;;;4.45;0.88;;;20.40;96.90;;;;;;4962893;28;20426;-66
2022/09/15 10:51:16;;;;;;;4.50;0.85;;;19.90;99.90;;;;;;4978962;28;20077;-66
2022/09/15 10:53:48;;;;;;;3.38;0.75;;;19.40;99.90;;;;;;4978911;28;20121;-66
2022/09/15 10:56:25;;;;;;;5.05;1.02;;;19.00;99.90;;;;;;4978744;28;20053;-68
2022/09/15 10:59:21;;;;;;;5.57;0.70;;;18.70;99.90;;;;;;4978811;28;20513;-69
2022/09/15 11:02:00;;;;;;;4.95;0.68;;;18.50;99.90;;;;;;4978734;28;20061;-69
2022/09/15 11:04:47;;;;;;;5.60;0.90;;;18.30;99.90;;;;;;4978757;28;20057;-69
2022/09/15 11:07:34;;;;;;;8.73;1.13;;;18.30;99.90;;;;;;4978839;28;20061;-70
2022/09/15 11:10:18;;;;;;;5.65;1.20;;;18.60;99.90;;;;;;4978830;28;20121;-70
2022/09/15 11:13:06;;;;;;;6.15;0.82;;;18.80;99.90;;;;;;4978782;28;20502;-70
2022/09/15 11:15:37;;;;;;;5.28;1.10;;;19.00;99.90;;;;;;4978434;28;20050;-70
2022/09/15 11:18:17;;;;;;;5.68;1.13;;;18.90;99.90;;;;;;4978364;28;20042;-70
2022/09/15 11:21:11;;;;;;;5.20;0.95;;;18.80;99.90;;;;;;4962333;28;20046;-70
2022/09/15 11:23:43;;;;;;;5.75;0.90;;;18.60;99.90;;;;;;4962257;28;20525;-70
2022/09/15 11:26:19;;;;;;;9.48;1.20;;;18.40;99.90;;;;;;4978304;28;20050;-70
2022/09/15 11:28:49;;;;;;;6.35;1.20;;;18.30;99.90;;;;;;4978537;28;20510;-70
2022/09/15 11:31:39;;;;;;;5.03;0.88;;;18.20;99.90;;;;;;4978429;28;20050;-70
2022/09/15 11:34:25;;;;;;;5.13;0.63;;;18.30;99.90;;;;;;4978413;28;20050;-70
2022/09/15 11:36:54;;;;;;;5.75;1.00;;;18.20;99.90;;;;;;4977953;28;20541;-70
2022/09/15 11:39:24;;;;;;;5.95;0.98;;;18.30;99.90;;;;;;4978005;28;20042;-70
2022/09/15 11:42:08;;;;;;;3.53;0.93;;;18.90;99.90;;;;;;4978012;28;20049;-70
2022/09/15 11:44:37;;;;;;;3.58;0.98;;;19.70;99.90;;;;;;4995372;28;20376;-70
2022/09/15 11:47:21;;;;;;;7.70;0.85;;;20.40;99.90;;;;;;4977797;28;20097;-70
2022/09/15 11:50:01;;;;;;;5.07;0.88;;;20.80;99.90;;;;;;4961984;28;20042;-67
2022/09/15 11:52:48;;;;;;;6.60;0.85;;;20.80;99.90;;;;;;4977081;28;20038;-68
2022/09/15 11:55:27;;;;;;;4.78;0.90;;;20.60;99.90;;;;;;4977937;28;20046;-68
2022/09/15 11:58:18;;;;;;;4.50;0.80;;;20.40;99.90;;;;;;4977599;28;20388;-68
2022/09/15 12:01:08;;;;;;;4.30;0.98;;;20.20;99.30;;;;;;4977700;28;20124;-68
2022/09/15 12:03:47;;;;;;;4.13;0.93;;;20.00;99.90;;;;;;4964133;28;20050;-68
2022/09/15 12:06:33;;;;;;;10.43;0.95;;;20.30;99.90;;;;;;4977484;28;20414;-68
2022/09/15 12:09:10;;;;;;;6.93;0.80;;;20.70;99.90;;;;;;4977448;28;20042;-68
2022/09/15 12:11:41;;;;;;;4.30;0.80;;;21.20;99.80;;;;;;4978412;28;20050;-68
2022/09/15 12:14:19;;;;;;;6.07;1.00;;;21.50;96.50;;;;;;4977679;28;20097;-67
2022/09/15 12:16:45;;;;;;;5.60;0.95;;;21.80;94.10;;;;;;4977220;28;20078;-68
2022/09/15 12:19:36;;;;;;;2.63;0.60;;;22.10;94.30;;;;;;4978058;28;20081;-68
2022/09/15 12:22:15;;;;;;;3.70;0.60;;;22.40;90.50;;;;;;4977424;28;20046;-67
2022/09/15 12:24:54;;;;;;;3.35;0.77;;;22.40;84.70;;;;;;4977233;28;20038;-68
2022/09/15 12:27:21;;;;;;;4.20;0.60;;;22.10;83.80;;;;;;4977120;28;20169;-68
2022/09/15 12:29:51;;;;;;;3.95;0.40;;;22.20;80.60;;;;;;4977266;28;20529;-67
2022/09/15 12:32:23;;;;;;;2.92;0.50;;;22.40;79.30;;;;;;4977054;28;20495;-67
2022/09/15 12:35:03;;;;;;;2.83;0.47;;;22.30;74.60;;;;;;4977051;28;20051;-68
2022/09/15 12:37:52;;;;;;;2.97;0.38;;;22.30;70.90;;;;;;4960824;28;20074;-68
2022/09/15 12:40:24;;;;;;;2.90;0.50;;;22.60;65.60;;;;;;4963117;28;20050;-68
2022/09/15 12:42:51;;;;;;;4.13;0.57;;;22.80;65.30;;;;;;4976863;28;20035;-68
2022/09/15 12:45:26;;;;;;;2.22;0.40;;;23.10;64.60;;;;;;4976820;28;20495;-68
2022/09/15 12:47:55;;;;;;;2.28;0.52;;;23.30;61.20;;;;;;4976708;28;20046;-68
2022/09/15 12:50:26;;;;;;;1.45;0.40;;;23.30;61.80;;;;;;4976745;28;20395;-70
2022/09/15 12:52:56;;;;;;;3.75;0.50;;;23.20;62.10;;;;;;4976704;28;20442;-70
2022/09/15 12:55:26;;;;;;;5.20;0.63;;;22.80;63.10;;;;;;4976712;28;20046;-70
2022/09/15 12:57:59;;;;;;;4.20;0.50;;;22.50;64.40;;;;;;4976802;28;20097;-70
2022/09/15 13:00:37;;;;;;;4.63;0.40;;;22.20;63.80;;;;;;4977489;28;20049;-71
2022/09/15 13:03:24;;;;;;;3.10;0.80;;;22.40;64.80;;;;;;4960320;28;20053;-70
2022/09/15 13:05:52;;;;;;;6.00;0.80;;;22.70;65.20;;;;;;4976468;28;20092;-71
2022/09/15 13:08:24;;;;;;;2.33;0.40;;;23.10;64.30;;;;;;4976544;28;20065;-70
2022/09/15 13:11:02;;;;;;;6.38;1.13;;;23.30;61.80;;;;;;4976529;28;20042;-70